sensor_id;sensor_type;location;lat;lon;timestamp;P1;durP1;ratioP1;P2;durP2;ratioP2
66087;SDS011;52872;52.994;6.940;2023-01-31T00:01:38;18.48;;;2.63;;
66087;SDS011;52872;52.994;6.940;2023-01-31T00:04:07;24.65;;;4.05;;
66087;SDS011;52872;52.994;6.940;2023-01-31T00:06:41;14.90;;;2.85;;
66087;SDS011;52872;52.994;6.940;2023-01-31T00:09:10;14.50;;;2.88;;
66087;SDS011;52872;52.994;6.940;2023-01-31T00:11:38;21.55;;;2.88;;
66087;SDS011;52872;52.994;6.940;2023-01-31T00:14:05;29.70;;;3.05;;
66087;SDS011;52872;52.994;6.940;2023-01-31T00:16:33;17.40;;;4.72;;
66087;SDS011;52872;52.994;6.940;2023-01-31T00:19:02;22.80;;;2.95;;
66087;SDS011;52872;52.994;6.940;2023-01-31T00:21:30;19.63;;;2.90;;
66087;SDS011;52872;52.994;6.940;2023-01-31T00:23:58;19.20;;;3.28;;
66087;SDS011;52872;52.994;6.940;2023-01-31T00:26:29;19.30;;;3.35;;
66087;SDS011;52872;52.994;6.940;2023-01-31T00:28:58;19.20;;;2.95;;
66087;SDS011;52872;52.994;6.940;2023-01-31T00:31:28;18.25;;;2.80;;
66087;SDS011;52872;52.994;6.940;2023-01-31T00:33:56;17.88;;;2.72;;
66087;SDS011;52872;52.994;6.940;2023-01-31T00:36:25;11.38;;;2.42;;
66087;SDS011;52872;52.994;6.940;2023-01-31T00:38:55;23.65;;;2.70;;
66087;SDS011;52872;52.994;6.940;2023-01-31T00:41:24;17.40;;;2.28;;
66087;SDS011;52872;52.994;6.940;2023-01-31T00:43:52;22.10;;;2.70;;
66087;SDS011;52872;52.994;6.940;2023-01-31T00:46:19;20.33;;;2.97;;
66087;SDS011;52872;52.994;6.940;2023-01-31T00:48:48;19.98;;;2.67;;
66087;SDS011;52872;52.994;6.940;2023-01-31T00:51:15;15.43;;;2.63;;
66087;SDS011;52872;52.994;6.940;2023-01-31T00:53:43;15.85;;;2.70;;
66087;SDS011;52872;52.994;6.940;2023-01-31T00:56:11;17.45;;;2.67;;
66087;SDS011;52872;52.994;6.940;2023-01-31T00:58:40;13.82;;;2.00;;
66087;SDS011;52872;52.994;6.940;2023-01-31T01:01:08;12.93;;;2.85;;
66087;SDS011;52872;52.994;6.940;2023-01-31T01:03:41;16.33;;;3.33;;
66087;SDS011;52872;52.994;6.940;2023-01-31T01:06:09;13.90;;;2.58;;
66087;SDS011;52872;52.994;6.940;2023-01-31T01:08:38;19.50;;;3.30;;
66087;SDS011;52872;52.994;6.940;2023-01-31T01:11:14;19.88;;;2.63;;
66087;SDS011;52872;52.994;6.940;2023-01-31T01:13:42;25.30;;;2.70;;
66087;SDS011;52872;52.994;6.940;2023-01-31T01:19:04;15.52;;;2.50;;
66087;SDS011;52872;52.994;6.940;2023-01-31T01:21:34;22.35;;;3.40;;
66087;SDS011;52872;52.994;6.940;2023-01-31T01:24:05;19.80;;;2.28;;
66087;SDS011;52872;52.994;6.940;2023-01-31T01:26:37;16.98;;;2.35;;
66087;SDS011;52872;52.994;6.940;2023-01-31T01:29:04;17.52;;;2.33;;
66087;SDS011;52872;52.994;6.940;2023-01-31T01:31:31;25.45;;;2.78;;
66087;SDS011;52872;52.994;6.940;2023-01-31T01:34:03;23.38;;;2.58;;
66087;SDS011;52872;52.994;6.940;2023-01-31T01:36:36;14.57;;;3.00;;
66087;SDS011;52872;52.994;6.940;2023-01-31T01:39:04;12.02;;;1.95;;
66087;SDS011;52872;52.994;6.940;2023-01-31T01:41:32;13.88;;;2.50;;
66087;SDS011;52872;52.994;6.940;2023-01-31T01:44:00;15.00;;;2.33;;
66087;SDS011;52872;52.994;6.940;2023-01-31T01:46:37;20.83;;;2.63;;
66087;SDS011;52872;52.994;6.940;2023-01-31T01:49:25;14.88;;;2.80;;
66087;SDS011;52872;52.994;6.940;2023-01-31T01:52:02;15.75;;;2.25;;
66087;SDS011;52872;52.994;6.940;2023-01-31T01:54:49;24.08;;;4.60;;
66087;SDS011;52872;52.994;6.940;2023-01-31T01:57:23;21.65;;;2.58;;
66087;SDS011;52872;52.994;6.940;2023-01-31T01:59:57;18.77;;;2.80;;
66087;SDS011;52872;52.994;6.940;2023-01-31T02:02:40;14.50;;;2.42;;
66087;SDS011;52872;52.994;6.940;2023-01-31T02:05:08;14.32;;;3.20;;
66087;SDS011;52872;52.994;6.940;2023-01-31T02:07:41;17.10;;;2.83;;
66087;SDS011;52872;52.994;6.940;2023-01-31T02:10:52;16.25;;;2.50;;
66087;SDS011;52872;52.994;6.940;2023-01-31T02:13:15;12.88;;;2.42;;
66087;SDS011;52872;52.994;6.940;2023-01-31T02:15:43;18.92;;;2.78;;
66087;SDS011;52872;52.994;6.940;2023-01-31T02:18:11;18.05;;;2.97;;
66087;SDS011;52872;52.994;6.940;2023-01-31T02:35:16;14.65;;;2.40;;
66087;SDS011;52872;52.994;6.940;2023-01-31T02:45:58;13.50;;;1.98;;
66087;SDS011;52872;52.994;6.940;2023-01-31T02:51:14;14.20;;;2.00;;
66087;SDS011;52872;52.994;6.940;2023-01-31T02:54:34;12.52;;;2.20;;
66087;SDS011;52872;52.994;6.940;2023-01-31T02:56:46;11.07;;;2.03;;
66087;SDS011;52872;52.994;6.940;2023-01-31T02:59:19;8.55;;;1.92;;
66087;SDS011;52872;52.994;6.940;2023-01-31T03:01:54;13.90;;;2.40;;
66087;SDS011;52872;52.994;6.940;2023-01-31T03:04:31;8.98;;;2.22;;
66087;SDS011;52872;52.994;6.940;2023-01-31T03:09:51;15.00;;;2.10;;
66087;SDS011;52872;52.994;6.940;2023-01-31T03:15:45;16.15;;;2.83;;
66087;SDS011;52872;52.994;6.940;2023-01-31T03:19:00;12.48;;;2.25;;
66087;SDS011;52872;52.994;6.940;2023-01-31T03:21:54;12.35;;;2.25;;
66087;SDS011;52872;52.994;6.940;2023-01-31T03:24:29;14.95;;;2.95;;
66087;SDS011;52872;52.994;6.940;2023-01-31T03:26:57;9.00;;;2.13;;
66087;SDS011;52872;52.994;6.940;2023-01-31T03:29:28;11.70;;;2.17;;
66087;SDS011;52872;52.994;6.940;2023-01-31T03:32:06;9.50;;;1.95;;
66087;SDS011;52872;52.994;6.940;2023-01-31T03:34:42;14.77;;;2.20;;
66087;SDS011;52872;52.994;6.940;2023-01-31T03:40:16;10.35;;;2.75;;
66087;SDS011;52872;52.994;6.940;2023-01-31T03:46:00;10.52;;;1.92;;
66087;SDS011;52872;52.994;6.940;2023-01-31T03:48:36;15.65;;;2.10;;
66087;SDS011;52872;52.994;6.940;2023-01-31T03:51:09;15.63;;;2.63;;
66087;SDS011;52872;52.994;6.940;2023-01-31T03:54:03;11.68;;;2.47;;
66087;SDS011;52872;52.994;6.940;2023-01-31T03:59:17;7.85;;;2.45;;
66087;SDS011;52872;52.994;6.940;2023-01-31T04:01:49;13.30;;;2.30;;
66087;SDS011;52872;52.994;6.940;2023-01-31T04:04:33;15.55;;;2.30;;
66087;SDS011;52872;52.994;6.940;2023-01-31T04:07:14;11.95;;;2.03;;
66087;SDS011;52872;52.994;6.940;2023-01-31T04:09:43;13.43;;;1.90;;
66087;SDS011;52872;52.994;6.940;2023-01-31T04:12:11;14.55;;;2.08;;
66087;SDS011;52872;52.994;6.940;2023-01-31T04:14:40;8.95;;;1.95;;
66087;SDS011;52872;52.994;6.940;2023-01-31T04:17:08;9.32;;;2.40;;
66087;SDS011;52872;52.994;6.940;2023-01-31T04:19:35;22.10;;;2.97;;
66087;SDS011;52872;52.994;6.940;2023-01-31T04:22:02;12.50;;;2.53;;
66087;SDS011;52872;52.994;6.940;2023-01-31T04:24:29;14.90;;;2.60;;
66087;SDS011;52872;52.994;6.940;2023-01-31T04:26:55;13.00;;;2.97;;
66087;SDS011;52872;52.994;6.940;2023-01-31T04:29:23;12.02;;;3.45;;
66087;SDS011;52872;52.994;6.940;2023-01-31T04:31:49;9.93;;;2.58;;
66087;SDS011;52872;52.994;6.940;2023-01-31T04:34:17;12.10;;;2.70;;
66087;SDS011;52872;52.994;6.940;2023-01-31T04:36:44;20.27;;;3.03;;
66087;SDS011;52872;52.994;6.940;2023-01-31T04:39:11;14.13;;;3.05;;
66087;SDS011;52872;52.994;6.940;2023-01-31T04:41:39;13.40;;;2.70;;
66087;SDS011;52872;52.994;6.940;2023-01-31T04:44:06;14.95;;;3.55;;
66087;SDS011;52872;52.994;6.940;2023-01-31T04:46:33;12.40;;;3.13;;
66087;SDS011;52872;52.994;6.940;2023-01-31T04:49:00;12.18;;;2.70;;
66087;SDS011;52872;52.994;6.940;2023-01-31T04:51:27;18.95;;;4.38;;
66087;SDS011;52872;52.994;6.940;2023-01-31T04:53:54;11.48;;;2.25;;
66087;SDS011;52872;52.994;6.940;2023-01-31T04:56:21;16.45;;;2.90;;
66087;SDS011;52872;52.994;6.940;2023-01-31T04:58:48;18.08;;;3.17;;
66087;SDS011;52872;52.994;6.940;2023-01-31T05:01:15;18.42;;;3.15;;
66087;SDS011;52872;52.994;6.940;2023-01-31T05:03:42;17.92;;;3.05;;
66087;SDS011;52872;52.994;6.940;2023-01-31T05:06:09;18.65;;;3.03;;
66087;SDS011;52872;52.994;6.940;2023-01-31T05:08:36;15.35;;;2.83;;
66087;SDS011;52872;52.994;6.940;2023-01-31T05:11:03;17.05;;;3.22;;
66087;SDS011;52872;52.994;6.940;2023-01-31T05:13:34;16.92;;;3.20;;
66087;SDS011;52872;52.994;6.940;2023-01-31T05:16:05;15.57;;;3.42;;
66087;SDS011;52872;52.994;6.940;2023-01-31T05:18:33;17.27;;;4.03;;
66087;SDS011;52872;52.994;6.940;2023-01-31T05:21:01;22.00;;;3.47;;
66087;SDS011;52872;52.994;6.940;2023-01-31T05:23:30;20.38;;;3.40;;
66087;SDS011;52872;52.994;6.940;2023-01-31T05:25:58;18.27;;;3.13;;
66087;SDS011;52872;52.994;6.940;2023-01-31T05:28:25;19.58;;;3.10;;
66087;SDS011;52872;52.994;6.940;2023-01-31T05:30:52;16.55;;;3.22;;
66087;SDS011;52872;52.994;6.940;2023-01-31T05:33:20;13.13;;;3.13;;
66087;SDS011;52872;52.994;6.940;2023-01-31T05:35:47;20.08;;;3.58;;
66087;SDS011;52872;52.994;6.940;2023-01-31T05:38:14;13.93;;;3.00;;
66087;SDS011;52872;52.994;6.940;2023-01-31T05:40:41;18.88;;;3.10;;
66087;SDS011;52872;52.994;6.940;2023-01-31T05:43:08;15.25;;;3.35;;
66087;SDS011;52872;52.994;6.940;2023-01-31T05:45:35;18.85;;;4.10;;
66087;SDS011;52872;52.994;6.940;2023-01-31T05:48:02;24.33;;;3.55;;
66087;SDS011;52872;52.994;6.940;2023-01-31T05:50:29;17.52;;;3.75;;
66087;SDS011;52872;52.994;6.940;2023-01-31T05:53:07;18.42;;;4.13;;
66087;SDS011;52872;52.994;6.940;2023-01-31T05:55:34;16.20;;;3.55;;
66087;SDS011;52872;52.994;6.940;2023-01-31T05:58:01;22.00;;;4.47;;
66087;SDS011;52872;52.994;6.940;2023-01-31T06:00:28;17.10;;;3.30;;
66087;SDS011;52872;52.994;6.940;2023-01-31T06:02:56;19.60;;;3.88;;
66087;SDS011;52872;52.994;6.940;2023-01-31T06:05:25;15.82;;;4.05;;
66087;SDS011;52872;52.994;6.940;2023-01-31T06:07:53;21.40;;;4.13;;
66087;SDS011;52872;52.994;6.940;2023-01-31T06:10:20;25.67;;;4.00;;
66087;SDS011;52872;52.994;6.940;2023-01-31T06:12:48;21.77;;;5.10;;
66087;SDS011;52872;52.994;6.940;2023-01-31T06:15:15;17.73;;;4.57;;
66087;SDS011;52872;52.994;6.940;2023-01-31T06:17:42;19.23;;;4.28;;
66087;SDS011;52872;52.994;6.940;2023-01-31T06:20:09;17.35;;;4.65;;
66087;SDS011;52872;52.994;6.940;2023-01-31T06:22:36;19.52;;;3.60;;
66087;SDS011;52872;52.994;6.940;2023-01-31T06:25:03;16.30;;;4.63;;
66087;SDS011;52872;52.994;6.940;2023-01-31T06:27:31;16.33;;;4.18;;
66087;SDS011;52872;52.994;6.940;2023-01-31T06:29:59;14.77;;;4.60;;
66087;SDS011;52872;52.994;6.940;2023-01-31T06:32:29;18.38;;;5.35;;
66087;SDS011;52872;52.994;6.940;2023-01-31T06:34:57;22.35;;;5.22;;
66087;SDS011;52872;52.994;6.940;2023-01-31T06:37:24;20.48;;;5.15;;
66087;SDS011;52872;52.994;6.940;2023-01-31T06:39:51;15.38;;;4.85;;
66087;SDS011;52872;52.994;6.940;2023-01-31T06:42:18;19.67;;;6.32;;
66087;SDS011;52872;52.994;6.940;2023-01-31T06:44:44;25.88;;;6.47;;
66087;SDS011;52872;52.994;6.940;2023-01-31T06:47:11;17.58;;;5.50;;
66087;SDS011;52872;52.994;6.940;2023-01-31T06:49:39;21.13;;;5.38;;
66087;SDS011;52872;52.994;6.940;2023-01-31T06:52:07;18.90;;;5.43;;
66087;SDS011;52872;52.994;6.940;2023-01-31T06:54:33;19.40;;;5.30;;
66087;SDS011;52872;52.994;6.940;2023-01-31T06:57:00;22.77;;;6.03;;
66087;SDS011;52872;52.994;6.940;2023-01-31T06:59:27;23.58;;;6.25;;
66087;SDS011;52872;52.994;6.940;2023-01-31T07:01:54;18.50;;;5.20;;
66087;SDS011;52872;52.994;6.940;2023-01-31T07:04:22;26.63;;;6.53;;
66087;SDS011;52872;52.994;6.940;2023-01-31T07:06:49;26.92;;;6.28;;
66087;SDS011;52872;52.994;6.940;2023-01-31T07:09:16;23.00;;;6.40;;
66087;SDS011;52872;52.994;6.940;2023-01-31T07:11:43;17.50;;;5.90;;
66087;SDS011;52872;52.994;6.940;2023-01-31T07:14:10;19.55;;;7.07;;
66087;SDS011;52872;52.994;6.940;2023-01-31T07:16:37;25.25;;;6.97;;
66087;SDS011;52872;52.994;6.940;2023-01-31T07:19:04;26.63;;;6.40;;
66087;SDS011;52872;52.994;6.940;2023-01-31T07:21:31;15.77;;;5.05;;
66087;SDS011;52872;52.994;6.940;2023-01-31T07:23:58;22.60;;;6.03;;
66087;SDS011;52872;52.994;6.940;2023-01-31T07:26:25;22.33;;;5.25;;
66087;SDS011;52872;52.994;6.940;2023-01-31T07:28:52;19.20;;;4.82;;
66087;SDS011;52872;52.994;6.940;2023-01-31T07:31:19;20.27;;;6.18;;
66087;SDS011;52872;52.994;6.940;2023-01-31T07:33:47;30.95;;;6.32;;
66087;SDS011;52872;52.994;6.940;2023-01-31T07:36:14;18.25;;;5.55;;
66087;SDS011;52872;52.994;6.940;2023-01-31T07:38:45;26.42;;;5.93;;
66087;SDS011;52872;52.994;6.940;2023-01-31T07:41:12;20.38;;;5.75;;
66087;SDS011;52872;52.994;6.940;2023-01-31T07:43:39;18.25;;;5.68;;
66087;SDS011;52872;52.994;6.940;2023-01-31T07:46:06;21.33;;;4.55;;
66087;SDS011;52872;52.994;6.940;2023-01-31T07:48:37;15.55;;;5.40;;
66087;SDS011;52872;52.994;6.940;2023-01-31T07:51:04;23.73;;;6.32;;
66087;SDS011;52872;52.994;6.940;2023-01-31T07:53:32;16.30;;;5.45;;
66087;SDS011;52872;52.994;6.940;2023-01-31T07:56:06;17.30;;;5.50;;
66087;SDS011;52872;52.994;6.940;2023-01-31T07:58:33;17.85;;;5.53;;
66087;SDS011;52872;52.994;6.940;2023-01-31T08:01:01;19.30;;;5.20;;
66087;SDS011;52872;52.994;6.940;2023-01-31T08:03:48;18.30;;;5.25;;
66087;SDS011;52872;52.994;6.940;2023-01-31T08:06:15;27.05;;;5.70;;
66087;SDS011;52872;52.994;6.940;2023-01-31T08:08:43;16.65;;;4.82;;
66087;SDS011;52872;52.994;6.940;2023-01-31T08:11:10;14.10;;;4.15;;
66087;SDS011;52872;52.994;6.940;2023-01-31T08:13:37;15.02;;;4.20;;
66087;SDS011;52872;52.994;6.940;2023-01-31T08:16:05;15.07;;;3.92;;
66087;SDS011;52872;52.994;6.940;2023-01-31T08:18:35;15.88;;;4.72;;
66087;SDS011;52872;52.994;6.940;2023-01-31T08:21:02;18.50;;;4.55;;
66087;SDS011;52872;52.994;6.940;2023-01-31T08:23:30;16.58;;;5.00;;
66087;SDS011;52872;52.994;6.940;2023-01-31T08:25:58;13.88;;;3.88;;
66087;SDS011;52872;52.994;6.940;2023-01-31T08:28:27;11.80;;;3.95;;
66087;SDS011;52872;52.994;6.940;2023-01-31T08:30:54;16.60;;;4.63;;
66087;SDS011;52872;52.994;6.940;2023-01-31T08:33:35;16.25;;;4.22;;
66087;SDS011;52872;52.994;6.940;2023-01-31T08:36:16;15.60;;;5.22;;
66087;SDS011;52872;52.994;6.940;2023-01-31T08:38:47;14.82;;;3.72;;
66087;SDS011;52872;52.994;6.940;2023-01-31T08:41:15;11.75;;;3.70;;
66087;SDS011;52872;52.994;6.940;2023-01-31T08:43:44;11.90;;;3.67;;
66087;SDS011;52872;52.994;6.940;2023-01-31T08:46:32;14.57;;;3.75;;
66087;SDS011;52872;52.994;6.940;2023-01-31T08:49:02;13.65;;;3.10;;
66087;SDS011;52872;52.994;6.940;2023-01-31T08:51:30;14.85;;;3.72;;
66087;SDS011;52872;52.994;6.940;2023-01-31T08:53:58;9.98;;;3.10;;
66087;SDS011;52872;52.994;6.940;2023-01-31T08:56:25;12.40;;;2.95;;
66087;SDS011;52872;52.994;6.940;2023-01-31T08:58:53;14.98;;;3.40;;
66087;SDS011;52872;52.994;6.940;2023-01-31T09:01:21;11.02;;;3.70;;
66087;SDS011;52872;52.994;6.940;2023-01-31T09:03:48;5.72;;;2.53;;
66087;SDS011;52872;52.994;6.940;2023-01-31T09:06:23;11.88;;;3.90;;
66087;SDS011;52872;52.994;6.940;2023-01-31T09:08:54;14.63;;;3.03;;
66087;SDS011;52872;52.994;6.940;2023-01-31T09:11:22;11.80;;;3.10;;
66087;SDS011;52872;52.994;6.940;2023-01-31T09:13:49;10.40;;;2.58;;
66087;SDS011;52872;52.994;6.940;2023-01-31T09:16:17;15.65;;;3.28;;
66087;SDS011;52872;52.994;6.940;2023-01-31T09:18:45;14.23;;;3.13;;
66087;SDS011;52872;52.994;6.940;2023-01-31T09:21:13;13.43;;;3.10;;
66087;SDS011;52872;52.994;6.940;2023-01-31T09:23:45;7.55;;;2.80;;
66087;SDS011;52872;52.994;6.940;2023-01-31T09:26:13;16.00;;;3.72;;
66087;SDS011;52872;52.994;6.940;2023-01-31T09:28:41;9.25;;;2.92;;
66087;SDS011;52872;52.994;6.940;2023-01-31T09:31:13;11.93;;;3.28;;
66087;SDS011;52872;52.994;6.940;2023-01-31T09:33:42;16.02;;;3.33;;
66087;SDS011;52872;52.994;6.940;2023-01-31T09:36:11;13.82;;;3.72;;
66087;SDS011;52872;52.994;6.940;2023-01-31T09:38:39;18.33;;;3.85;;
66087;SDS011;52872;52.994;6.940;2023-01-31T09:44:00;16.42;;;3.72;;
66087;SDS011;52872;52.994;6.940;2023-01-31T09:46:31;16.60;;;3.00;;
66087;SDS011;52872;52.994;6.940;2023-01-31T09:49:03;20.77;;;3.45;;
66087;SDS011;52872;52.994;6.940;2023-01-31T09:51:32;11.50;;;3.78;;
66087;SDS011;52872;52.994;6.940;2023-01-31T09:54:01;10.93;;;3.03;;
66087;SDS011;52872;52.994;6.940;2023-01-31T09:59:09;13.23;;;3.40;;
66087;SDS011;52872;52.994;6.940;2023-01-31T10:01:54;9.88;;;2.60;;
66087;SDS011;52872;52.994;6.940;2023-01-31T10:07:33;13.38;;;2.67;;
66087;SDS011;52872;52.994;6.940;2023-01-31T10:13:02;14.07;;;3.95;;
66087;SDS011;52872;52.994;6.940;2023-01-31T10:15:51;13.77;;;3.55;;
66087;SDS011;52872;52.994;6.940;2023-01-31T10:18:29;10.77;;;2.78;;
66087;SDS011;52872;52.994;6.940;2023-01-31T10:21:01;12.70;;;3.80;;
66087;SDS011;52872;52.994;6.940;2023-01-31T10:23:43;10.23;;;3.30;;
66087;SDS011;52872;52.994;6.940;2023-01-31T10:26:30;15.18;;;3.15;;
66087;SDS011;52872;52.994;6.940;2023-01-31T10:29:13;17.77;;;3.03;;
66087;SDS011;52872;52.994;6.940;2023-01-31T10:31:51;13.40;;;3.38;;
66087;SDS011;52872;52.994;6.940;2023-01-31T10:34:29;14.93;;;3.42;;
66087;SDS011;52872;52.994;6.940;2023-01-31T10:37:05;15.93;;;4.20;;
66087;SDS011;52872;52.994;6.940;2023-01-31T10:39:47;11.20;;;3.15;;
66087;SDS011;52872;52.994;6.940;2023-01-31T10:42:21;9.98;;;3.47;;
66087;SDS011;52872;52.994;6.940;2023-01-31T10:47:35;10.43;;;3.78;;
66087;SDS011;52872;52.994;6.940;2023-01-31T10:55:41;17.77;;;4.65;;
66087;SDS011;52872;52.994;6.940;2023-01-31T10:58:28;8.98;;;3.10;;
66087;SDS011;52872;52.994;6.940;2023-01-31T11:00:56;15.82;;;4.63;;
66087;SDS011;52872;52.994;6.940;2023-01-31T11:03:24;13.48;;;4.28;;
66087;SDS011;52872;52.994;6.940;2023-01-31T11:05:55;14.55;;;3.33;;
66087;SDS011;52872;52.994;6.940;2023-01-31T11:10:57;13.70;;;3.67;;
66087;SDS011;52872;52.994;6.940;2023-01-31T11:13:30;13.18;;;4.05;;
66087;SDS011;52872;52.994;6.940;2023-01-31T11:15:57;13.43;;;3.72;;
66087;SDS011;52872;52.994;6.940;2023-01-31T11:18:25;16.25;;;5.07;;
66087;SDS011;52872;52.994;6.940;2023-01-31T11:20:55;10.32;;;3.30;;
66087;SDS011;52872;52.994;6.940;2023-01-31T11:23:24;9.68;;;2.92;;
66087;SDS011;52872;52.994;6.940;2023-01-31T11:25:53;9.48;;;3.40;;
66087;SDS011;52872;52.994;6.940;2023-01-31T11:28:35;11.23;;;3.28;;
66087;SDS011;52872;52.994;6.940;2023-01-31T11:31:07;11.68;;;3.22;;
66087;SDS011;52872;52.994;6.940;2023-01-31T11:34:00;11.75;;;4.03;;
66087;SDS011;52872;52.994;6.940;2023-01-31T11:36:41;8.23;;;3.30;;
66087;SDS011;52872;52.994;6.940;2023-01-31T11:39:24;11.43;;;3.28;;
66087;SDS011;52872;52.994;6.940;2023-01-31T11:42:09;9.05;;;3.45;;
66087;SDS011;52872;52.994;6.940;2023-01-31T11:47:30;13.13;;;3.80;;
66087;SDS011;52872;52.994;6.940;2023-01-31T11:51:03;12.35;;;3.50;;
66087;SDS011;52872;52.994;6.940;2023-01-31T11:53:21;11.38;;;3.20;;
66087;SDS011;52872;52.994;6.940;2023-01-31T11:55:53;8.30;;;3.00;;
66087;SDS011;52872;52.994;6.940;2023-01-31T11:58:36;11.43;;;3.45;;
66087;SDS011;52872;52.994;6.940;2023-01-31T12:01:06;10.52;;;3.95;;
66087;SDS011;52872;52.994;6.940;2023-01-31T12:03:34;11.18;;;3.20;;
66087;SDS011;52872;52.994;6.940;2023-01-31T12:06:04;10.07;;;3.08;;
66087;SDS011;52872;52.994;6.940;2023-01-31T12:08:34;14.48;;;3.05;;
66087;SDS011;52872;52.994;6.940;2023-01-31T12:16:13;13.25;;;3.47;;
66087;SDS011;52872;52.994;6.940;2023-01-31T12:21:23;15.20;;;3.30;;
66087;SDS011;52872;52.994;6.940;2023-01-31T12:52:19;24.23;;;3.87;;
66087;SDS011;52872;52.994;6.940;2023-01-31T12:55:08;10.95;;;2.70;;
66087;SDS011;52872;52.994;6.940;2023-01-31T12:57:55;16.37;;;3.70;;
66087;SDS011;52872;52.994;6.940;2023-01-31T13:09:20;8.68;;;2.85;;
66087;SDS011;52872;52.994;6.940;2023-01-31T13:11:55;13.77;;;3.00;;
66087;SDS011;52872;52.994;6.940;2023-01-31T13:14:40;10.45;;;2.38;;
66087;SDS011;52872;52.994;6.940;2023-01-31T13:17:15;12.50;;;2.80;;
66087;SDS011;52872;52.994;6.940;2023-01-31T13:19:50;9.20;;;2.17;;
66087;SDS011;52872;52.994;6.940;2023-01-31T13:25:41;9.38;;;2.58;;
66087;SDS011;52872;52.994;6.940;2023-01-31T13:28:00;11.73;;;3.30;;
66087;SDS011;52872;52.994;6.940;2023-01-31T13:38:36;11.55;;;3.10;;
66087;SDS011;52872;52.994;6.940;2023-01-31T13:41:07;11.18;;;2.40;;
66087;SDS011;52872;52.994;6.940;2023-01-31T13:43:47;8.35;;;2.50;;
66087;SDS011;52872;52.994;6.940;2023-01-31T13:46:15;10.60;;;2.92;;
66087;SDS011;52872;52.994;6.940;2023-01-31T13:51:25;10.23;;;3.22;;
66087;SDS011;52872;52.994;6.940;2023-01-31T13:56:36;9.50;;;2.22;;
66087;SDS011;52872;52.994;6.940;2023-01-31T13:59:09;12.02;;;2.78;;
66087;SDS011;52872;52.994;6.940;2023-01-31T14:01:44;8.85;;;2.80;;
66087;SDS011;52872;52.994;6.940;2023-01-31T14:06:53;8.23;;;3.33;;
66087;SDS011;52872;52.994;6.940;2023-01-31T14:11:49;11.55;;;2.85;;
66087;SDS011;52872;52.994;6.940;2023-01-31T14:14:18;12.82;;;3.10;;
66087;SDS011;52872;52.994;6.940;2023-01-31T14:16:46;11.27;;;2.63;;
66087;SDS011;52872;52.994;6.940;2023-01-31T14:22:04;8.38;;;2.60;;
66087;SDS011;52872;52.994;6.940;2023-01-31T14:30:30;10.20;;;2.70;;
66087;SDS011;52872;52.994;6.940;2023-01-31T14:35:53;10.82;;;2.60;;
66087;SDS011;52872;52.994;6.940;2023-01-31T14:41:35;10.13;;;2.97;;
66087;SDS011;52872;52.994;6.940;2023-01-31T14:47:40;11.82;;;2.25;;
66087;SDS011;52872;52.994;6.940;2023-01-31T14:56:51;8.18;;;2.20;;
66087;SDS011;52872;52.994;6.940;2023-01-31T15:01:55;9.57;;;2.58;;
66087;SDS011;52872;52.994;6.940;2023-01-31T15:04:23;13.68;;;2.72;;
66087;SDS011;52872;52.994;6.940;2023-01-31T15:06:53;11.75;;;2.95;;
66087;SDS011;52872;52.994;6.940;2023-01-31T15:11:53;11.18;;;2.42;;
66087;SDS011;52872;52.994;6.940;2023-01-31T15:14:40;9.95;;;2.80;;
66087;SDS011;52872;52.994;6.940;2023-01-31T15:17:21;15.02;;;3.17;;
66087;SDS011;52872;52.994;6.940;2023-01-31T15:20:05;15.93;;;2.92;;
66087;SDS011;52872;52.994;6.940;2023-01-31T15:22:41;13.82;;;2.72;;
66087;SDS011;52872;52.994;6.940;2023-01-31T15:25:25;14.45;;;3.17;;
66087;SDS011;52872;52.994;6.940;2023-01-31T15:28:14;10.95;;;2.70;;
66087;SDS011;52872;52.994;6.940;2023-01-31T15:30:44;13.85;;;2.80;;
66087;SDS011;52872;52.994;6.940;2023-01-31T15:36:02;10.88;;;2.75;;
66087;SDS011;52872;52.994;6.940;2023-01-31T15:44:17;14.73;;;3.28;;
66087;SDS011;52872;52.994;6.940;2023-01-31T15:46:47;17.05;;;3.20;;
66087;SDS011;52872;52.994;6.940;2023-01-31T15:52:11;13.85;;;2.80;;
66087;SDS011;52872;52.994;6.940;2023-01-31T15:57:35;9.52;;;2.92;;
66087;SDS011;52872;52.994;6.940;2023-01-31T16:00:06;20.37;;;3.27;;
66087;SDS011;52872;52.994;6.940;2023-01-31T16:02:33;20.83;;;3.40;;
66087;SDS011;52872;52.994;6.940;2023-01-31T16:05:04;14.95;;;2.78;;
66087;SDS011;52872;52.994;6.940;2023-01-31T16:07:32;17.40;;;3.70;;
66087;SDS011;52872;52.994;6.940;2023-01-31T16:10:00;21.45;;;3.97;;
66087;SDS011;52872;52.994;6.940;2023-01-31T16:12:28;18.20;;;3.22;;
66087;SDS011;52872;52.994;6.940;2023-01-31T16:14:57;17.42;;;3.20;;
66087;SDS011;52872;52.994;6.940;2023-01-31T16:17:29;13.90;;;2.83;;
66087;SDS011;52872;52.994;6.940;2023-01-31T16:19:56;14.95;;;2.85;;
66087;SDS011;52872;52.994;6.940;2023-01-31T16:22:27;16.08;;;2.75;;
66087;SDS011;52872;52.994;6.940;2023-01-31T16:24:57;21.90;;;3.67;;
66087;SDS011;52872;52.994;6.940;2023-01-31T16:27:35;16.02;;;3.30;;
66087;SDS011;52872;52.994;6.940;2023-01-31T16:30:03;15.00;;;3.53;;
66087;SDS011;52872;52.994;6.940;2023-01-31T16:32:33;13.80;;;3.60;;
66087;SDS011;52872;52.994;6.940;2023-01-31T16:35:07;20.38;;;4.07;;
66087;SDS011;52872;52.994;6.940;2023-01-31T16:38:03;12.98;;;3.42;;
66087;SDS011;52872;52.994;6.940;2023-01-31T16:40:34;27.03;;;4.47;;
66087;SDS011;52872;52.994;6.940;2023-01-31T16:43:26;25.65;;;4.63;;
66087;SDS011;52872;52.994;6.940;2023-01-31T16:46:15;19.60;;;3.53;;
66087;SDS011;52872;52.994;6.940;2023-01-31T16:49:02;15.65;;;3.83;;
66087;SDS011;52872;52.994;6.940;2023-01-31T16:51:38;18.85;;;3.83;;
66087;SDS011;52872;52.994;6.940;2023-01-31T16:56:45;16.67;;;3.08;;
66087;SDS011;52872;52.994;6.940;2023-01-31T17:04:42;15.90;;;3.10;;
66087;SDS011;52872;52.994;6.940;2023-01-31T17:07:13;23.38;;;4.25;;
66087;SDS011;52872;52.994;6.940;2023-01-31T17:09:44;17.02;;;3.50;;
66087;SDS011;52872;52.994;6.940;2023-01-31T17:12:45;19.27;;;4.15;;
66087;SDS011;52872;52.994;6.940;2023-01-31T17:15:16;15.15;;;3.40;;
66087;SDS011;52872;52.994;6.940;2023-01-31T17:17:45;19.08;;;3.60;;
66087;SDS011;52872;52.994;6.940;2023-01-31T17:20:17;22.27;;;3.60;;
66087;SDS011;52872;52.994;6.940;2023-01-31T17:22:46;22.83;;;3.45;;
66087;SDS011;52872;52.994;6.940;2023-01-31T17:25:26;17.08;;;3.28;;
66087;SDS011;52872;52.994;6.940;2023-01-31T17:27:58;17.08;;;4.15;;
66087;SDS011;52872;52.994;6.940;2023-01-31T17:30:24;23.48;;;4.32;;
66087;SDS011;52872;52.994;6.940;2023-01-31T17:32:55;17.58;;;3.33;;
66087;SDS011;52872;52.994;6.940;2023-01-31T17:35:36;16.08;;;3.45;;
66087;SDS011;52872;52.994;6.940;2023-01-31T17:38:05;18.67;;;4.35;;
66087;SDS011;52872;52.994;6.940;2023-01-31T17:40:32;18.60;;;4.28;;
66087;SDS011;52872;52.994;6.940;2023-01-31T17:43:02;10.32;;;3.25;;
66087;SDS011;52872;52.994;6.940;2023-01-31T17:45:30;21.00;;;3.70;;
66087;SDS011;52872;52.994;6.940;2023-01-31T17:47:58;16.83;;;3.72;;
66087;SDS011;52872;52.994;6.940;2023-01-31T17:50:25;17.70;;;4.10;;
66087;SDS011;52872;52.994;6.940;2023-01-31T17:52:54;15.00;;;4.15;;
66087;SDS011;52872;52.994;6.940;2023-01-31T17:55:22;19.88;;;3.95;;
66087;SDS011;52872;52.994;6.940;2023-01-31T17:57:50;13.02;;;2.72;;
66087;SDS011;52872;52.994;6.940;2023-01-31T18:00:18;18.10;;;3.30;;
66087;SDS011;52872;52.994;6.940;2023-01-31T18:02:45;19.48;;;3.83;;
66087;SDS011;52872;52.994;6.940;2023-01-31T18:05:14;12.18;;;2.63;;
66087;SDS011;52872;52.994;6.940;2023-01-31T18:07:47;17.17;;;2.60;;
66087;SDS011;52872;52.994;6.940;2023-01-31T18:10:15;15.35;;;2.90;;